Time;durP1;ratioP1;P1;durP2;ratioP2;P2;SDS_P1;SDS_P2;PMS_P1;PMS_P2;Temp;Humidity;BMP_temperature;BMP_pressure;BME280_temperature;BME280_humidity;BME280_pressure;Samples;Min_cycle;Max_cycle;Signal;HPM_P1;HPM_P2
2021/04/30 00:02:53;;;;;;;13.93;11.68;;;;;;;;;;6183767;28;20050;-68
2021/04/30 00:05:54;;;;;;;14.30;10.82;;;;;;;;;;6186589;28;20046;-68
2021/04/30 00:08:55;;;;;;;17.00;12.10;;;;;;;;;;6186300;28;20058;-70
2021/04/30 00:11:57;;;;;;;638.05;349.05;;;;;;;;;;6188038;28;20069;-69
2021/04/30 00:14:58;;;;;;;79.47;48.15;;;;;;;;;;6188857;28;20121;-68
2021/04/30 00:18:04;;;;;;;32.78;21.80;;;;;;;;;;6187058;28;20057;-71
2021/04/30 00:21:06;;;;;;;139.18;70.20;;;;;;;;;;6185575;28;20046;-69
2021/04/30 00:24:07;;;;;;;90.63;44.85;;;;;;;;;;6191588;28;20034;-69
2021/04/30 00:27:09;;;;;;;97.57;48.47;;;;;;;;;;6198082;28;20045;-68
2021/04/30 00:30:13;;;;;;;47.47;28.02;;;;;;;;;;6209069;28;20856;-69
2021/04/30 00:33:14;;;;;;;14.77;10.75;;;;;;;;;;6204462;28;20145;-69
2021/04/30 00:36:15;;;;;;;10.52;8.48;;;;;;;;;;6185830;28;20077;-68
2021/04/30 00:39:16;;;;;;;10.70;8.57;;;;;;;;;;6184883;28;20044;-69
2021/04/30 00:42:18;;;;;;;12.18;9.20;;;;;;;;;;6182760;28;20125;-68
2021/04/30 00:45:22;;;;;;;10.88;8.07;;;;;;;;;;6184234;28;20089;-68
2021/04/30 00:48:23;;;;;;;12.55;8.98;;;;;;;;;;6186546;28;20047;-68
2021/04/30 00:51:24;;;;;;;10.45;8.07;;;;;;;;;;6182354;28;20147;-67
2021/04/30 00:54:25;;;;;;;10.68;8.75;;;;;;;;;;6190737;28;20054;-67
2021/04/30 00:57:27;;;;;;;11.15;8.68;;;;;;;;;;6201076;28;20367;-68
2021/04/30 01:00:30;;;;;;;11.45;8.88;;;;;;;;;;6184835;28;20573;-67
2021/04/30 01:03:31;;;;;;;10.45;8.43;;;;;;;;;;6474588;23;20120;-67
2021/04/30 01:06:32;;;;;;;11.00;8.40;;;;;;;;;;6219632;28;20049;-67
2021/04/30 01:09:33;;;;;;;10.88;8.93;;;;;;;;;;6212934;28;20111;-68
2021/04/30 01:12:35;;;;;;;11.63;8.25;;;;;;;;;;6207056;28;20061;-68
2021/04/30 01:15:37;;;;;;;13.57;8.88;;;;;;;;;;6208173;28;20042;-68
2021/04/30 01:18:41;;;;;;;13.23;9.00;;;;;;;;;;6206349;28;20060;-67
2021/04/30 01:21:44;;;;;;;11.52;8.77;;;;;;;;;;6221339;28;20176;-68
2021/04/30 01:24:46;;;;;;;10.30;8.57;;;;;;;;;;6213631;28;20060;-67
2021/04/30 01:27:47;;;;;;;10.38;8.52;;;;;;;;;;6218521;28;20140;-68
2021/04/30 01:30:48;;;;;;;10.95;8.63;;;;;;;;;;6215529;28;20069;-67
2021/04/30 01:33:54;;;;;;;11.82;8.10;;;;;;;;;;6211874;28;20056;-68
2021/04/30 01:36:55;;;;;;;9.30;7.80;;;;;;;;;;6212007;28;20095;-68
2021/04/30 01:39:57;;;;;;;9.65;7.47;;;;;;;;;;6222144;28;20045;-68
2021/04/30 01:43:02;;;;;;;10.40;8.45;;;;;;;;;;6219857;28;20049;-68
2021/04/30 01:46:05;;;;;;;9.05;7.80;;;;;;;;;;6202727;28;20459;-67
2021/04/30 01:49:10;;;;;;;8.82;7.35;;;;;;;;;;6229638;28;20073;-68
2021/04/30 01:52:11;;;;;;;9.25;7.40;;;;;;;;;;6210232;28;20060;-67
2021/04/30 01:55:14;;;;;;;9.65;7.90;;;;;;;;;;6195143;28;20129;-68
2021/04/30 01:58:16;;;;;;;8.82;7.78;;;;;;;;;;6207827;28;20482;-68
2021/04/30 02:01:18;;;;;;;10.68;8.00;;;;;;;;;;6227253;28;20386;-68
2021/04/30 02:04:19;;;;;;;9.82;8.35;;;;;;;;;;6211776;28;20078;-68
2021/04/30 02:07:20;;;;;;;11.40;8.18;;;;;;;;;;6213119;28;20129;-68
2021/04/30 02:10:23;;;;;;;9.32;7.97;;;;;;;;;;6234151;28;20140;-68
2021/04/30 02:13:24;;;;;;;10.57;7.93;;;;;;;;;;6226797;28;20046;-68
2021/04/30 02:16:25;;;;;;;10.45;7.93;;;;;;;;;;6198095;28;20137;-68
2021/04/30 02:19:26;;;;;;;9.43;7.22;;;;;;;;;;6210398;28;20141;-68
2021/04/30 02:22:28;;;;;;;9.35;7.40;;;;;;;;;;6212335;28;20056;-68
2021/04/30 02:25:30;;;;;;;9.95;7.57;;;;;;;;;;6234217;28;20057;-68
2021/04/30 02:28:32;;;;;;;8.20;7.18;;;;;;;;;;6223244;28;20064;-67
2021/04/30 02:31:33;;;;;;;7.85;7.05;;;;;;;;;;6238645;28;20136;-68
2021/04/30 02:34:34;;;;;;;9.07;7.00;;;;;;;;;;6235367;28;20056;-69
2021/04/30 02:37:35;;;;;;;8.10;7.07;;;;;;;;;;6244659;28;20036;-69
2021/04/30 02:40:38;;;;;;;8.75;6.70;;;;;;;;;;6238205;28;20428;-68
2021/04/30 02:43:39;;;;;;;9.35;6.88;;;;;;;;;;6236786;28;20572;-68
2021/04/30 02:46:40;;;;;;;11.70;6.93;;;;;;;;;;6236134;28;20140;-68
2021/04/30 02:49:43;;;;;;;13.13;6.63;;;;;;;;;;6234859;28;20045;-68
2021/04/30 02:52:45;;;;;;;8.67;6.83;;;;;;;;;;6229095;28;20077;-68
2021/04/30 02:55:47;;;;;;;7.13;6.25;;;;;;;;;;6231970;28;20132;-69
2021/04/30 02:58:53;;;;;;;12.18;7.30;;;;;;;;;;6240285;28;20065;-68
2021/04/30 03:01:54;;;;;;;9.60;7.03;;;;;;;;;;6245348;28;20080;-68
2021/04/30 03:04:55;;;;;;;8.73;7.15;;;;;;;;;;6229643;28;20543;-68
2021/04/30 03:07:56;;;;;;;9.15;6.50;;;;;;;;;;6233247;28;20128;-69
2021/04/30 03:10:58;;;;;;;9.60;6.95;;;;;;;;;;6222721;28;20049;-69
2021/04/30 03:13:59;;;;;;;8.70;6.50;;;;;;;;;;6223126;28;20245;-68
2021/04/30 03:17:00;;;;;;;8.10;6.30;;;;;;;;;;6210520;28;20077;-69
2021/04/30 03:20:01;;;;;;;8.18;6.60;;;;;;;;;;6223489;28;20050;-69
2021/04/30 03:23:02;;;;;;;9.45;7.70;;;;;;;;;;6213142;28;20700;-68
2021/04/30 03:26:04;;;;;;;8.70;7.53;;;;;;;;;;6216919;28;20058;-69
2021/04/30 03:29:05;;;;;;;10.10;7.28;;;;;;;;;;6210383;28;20058;-69
2021/04/30 03:32:07;;;;;;;9.05;7.22;;;;;;;;;;6199568;28;20050;-69
2021/04/30 03:35:15;;;;;;;8.23;6.82;;;;;;;;;;6199334;28;20054;-69
2021/04/30 03:38:16;;;;;;;10.30;7.50;;;;;;;;;;6200678;28;20532;-70
2021/04/30 03:41:18;;;;;;;7.57;6.80;;;;;;;;;;6199935;28;20050;-69
2021/04/30 03:44:19;;;;;;;9.98;7.22;;;;;;;;;;6203593;28;20188;-69
2021/04/30 03:47:20;;;;;;;8.57;7.35;;;;;;;;;;6198628;28;20805;-69
2021/04/30 03:50:22;;;;;;;11.13;7.60;;;;;;;;;;6195453;28;20047;-69
2021/04/30 03:53:23;;;;;;;9.18;7.40;;;;;;;;;;6197599;28;20042;-70
2021/04/30 03:56:25;;;;;;;9.55;8.02;;;;;;;;;;6197280;28;20136;-69
2021/04/30 03:59:26;;;;;;;8.88;7.78;;;;;;;;;;6193805;28;20516;-69
2021/04/30 04:02:27;;;;;;;9.60;7.40;;;;;;;;;;6197370;28;20057;-70
2021/04/30 04:05:28;;;;;;;12.50;9.25;;;;;;;;;;6200259;28;20050;-69
2021/04/30 04:08:29;;;;;;;10.48;8.45;;;;;;;;;;6198208;28;20056;-69
2021/04/30 04:11:31;;;;;;;10.55;8.43;;;;;;;;;;6202144;28;20077;-70
2021/04/30 04:14:32;;;;;;;8.52;7.50;;;;;;;;;;6199465;28;20076;-69
2021/04/30 04:17:34;;;;;;;11.27;6.80;;;;;;;;;;6216749;28;20515;-70
2021/04/30 04:20:35;;;;;;;7.32;6.63;;;;;;;;;;6221359;28;20115;-69
2021/04/30 04:23:36;;;;;;;9.63;7.20;;;;;;;;;;6226710;28;20052;-70
2021/04/30 04:26:38;;;;;;;8.18;7.22;;;;;;;;;;6201261;28;20053;-68
2021/04/30 04:29:39;;;;;;;8.55;6.82;;;;;;;;;;6196468;28;20683;-69
2021/04/30 04:32:40;;;;;;;9.52;7.03;;;;;;;;;;6215224;28;20604;-69
2021/04/30 04:35:41;;;;;;;10.63;7.35;;;;;;;;;;6195808;28;20160;-69
2021/04/30 04:38:42;;;;;;;7.85;7.05;;;;;;;;;;6195528;28;20440;-68
2021/04/30 04:41:44;;;;;;;8.00;7.15;;;;;;;;;;6204148;28;20152;-68
2021/04/30 04:44:45;;;;;;;8.25;7.35;;;;;;;;;;6211338;28;20485;-69
2021/04/30 04:47:47;;;;;;;9.18;7.45;;;;;;;;;;6209714;28;20050;-69
2021/04/30 04:50:48;;;;;;;7.40;6.65;;;;;;;;;;6206723;28;20050;-69
2021/04/30 04:53:49;;;;;;;8.32;6.97;;;;;;;;;;6209699;28;20046;-70
2021/04/30 04:56:51;;;;;;;8.15;7.30;;;;;;;;;;6211892;28;20239;-69
2021/04/30 04:59:52;;;;;;;11.63;7.82;;;;;;;;;;6205165;28;20046;-69
2021/04/30 05:02:53;;;;;;;8.70;6.82;;;;;;;;;;6202997;28;20041;-68
2021/04/30 05:05:54;;;;;;;9.10;6.97;;;;;;;;;;6202817;28;20511;-69
2021/04/30 05:08:55;;;;;;;6.57;5.88;;;;;;;;;;6201258;28;20059;-68
2021/04/30 05:11:57;;;;;;;7.10;6.00;;;;;;;;;;6220992;28;20136;-69
2021/04/30 05:14:58;;;;;;;10.27;6.68;;;;;;;;;;6203485;28;20050;-70
2021/04/30 05:17:59;;;;;;;8.15;6.10;;;;;;;;;;6227626;28;20460;-69
2021/04/30 05:21:01;;;;;;;7.97;5.45;;;;;;;;;;6228253;28;20085;-70
2021/04/30 05:24:02;;;;;;;7.80;5.70;;;;;;;;;;6203370;28;20049;-69
2021/04/30 05:27:06;;;;;;;6.38;5.32;;;;;;;;;;6227704;28;20537;-70
2021/04/30 05:30:08;;;;;;;5.47;4.60;;;;;;;;;;6220479;28;20074;-72
2021/04/30 05:33:10;;;;;;;6.32;4.68;;;;;;;;;;6225960;28;20085;-71
2021/04/30 05:36:11;;;;;;;6.57;4.82;;;;;;;;;;6204329;28;20101;-72
2021/04/30 05:39:12;;;;;;;7.20;4.45;;;;;;;;;;6197635;28;20050;-72
2021/04/30 05:42:13;;;;;;;6.05;5.03;;;;;;;;;;6206060;28;20076;-72
2021/04/30 05:45:15;;;;;;;6.90;5.30;;;;;;;;;;6220737;28;20140;-72
2021/04/30 05:48:16;;;;;;;6.38;4.85;;;;;;;;;;6207055;28;20684;-72
2021/04/30 05:51:18;;;;;;;7.53;4.53;;;;;;;;;;6200325;28;20080;-71
2021/04/30 05:54:19;;;;;;;5.75;4.50;;;;;;;;;;6213390;28;20129;-73
2021/04/30 05:57:21;;;;;;;6.13;4.50;;;;;;;;;;6214065;28;20160;-72
2021/04/30 06:00:22;;;;;;;4.63;3.88;;;;;;;;;;6195659;28;20058;-72
2021/04/30 06:03:23;;;;;;;4.75;3.72;;;;;;;;;;6192996;28;20152;-73
2021/04/30 06:06:24;;;;;;;5.85;4.03;;;;;;;;;;6208454;28;20100;-71
2021/04/30 06:09:25;;;;;;;6.05;4.40;;;;;;;;;;6207220;28;20141;-72
2021/04/30 06:12:27;;;;;;;5.63;4.00;;;;;;;;;;6212678;28;20149;-71
2021/04/30 06:15:28;;;;;;;6.30;4.28;;;;;;;;;;6212229;28;20128;-73
2021/04/30 06:18:29;;;;;;;4.97;3.88;;;;;;;;;;6211407;28;20038;-71
2021/04/30 06:21:30;;;;;;;5.50;4.32;;;;;;;;;;6214318;28;20446;-71
2021/04/30 06:24:31;;;;;;;6.63;4.70;;;;;;;;;;6197109;28;20153;-71
2021/04/30 06:27:33;;;;;;;5.25;4.45;;;;;;;;;;6190406;28;20046;-72
2021/04/30 06:30:35;;;;;;;5.47;4.50;;;;;;;;;;6197321;28;20535;-73
2021/04/30 06:33:36;;;;;;;7.25;5.03;;;;;;;;;;6196255;28;20050;-72
2021/04/30 06:36:37;;;;;;;7.03;5.10;;;;;;;;;;6191223;28;20042;-71
2021/04/30 06:39:38;;;;;;;5.90;4.95;;;;;;;;;;6191066;28;20141;-71
2021/04/30 06:42:40;;;;;;;6.55;5.43;;;;;;;;;;6194071;28;20046;-70
2021/04/30 06:45:41;;;;;;;6.15;5.43;;;;;;;;;;6224448;28;20049;-72
2021/04/30 06:48:42;;;;;;;6.63;5.68;;;;;;;;;;6192864;28;20737;-71
2021/04/30 06:51:43;;;;;;;9.18;5.93;;;;;;;;;;6192066;28;20124;-71
2021/04/30 06:54:44;;;;;;;9.75;6.22;;;;;;;;;;6195824;28;20081;-71
2021/04/30 06:57:46;;;;;;;11.20;7.10;;;;;;;;;;6208259;28;20157;-71
2021/04/30 07:00:47;;;;;;;7.53;6.57;;;;;;;;;;6210498;28;20540;-71
2021/04/30 07:03:51;;;;;;;9.63;6.47;;;;;;;;;;6208784;28;20050;-71
2021/04/30 07:06:54;;;;;;;7.13;6.40;;;;;;;;;;6202996;28;20043;-70
2021/04/30 07:09:56;;;;;;;10.88;6.95;;;;;;;;;;6196891;28;20129;-71
2021/04/30 07:12:58;;;;;;;8.38;6.68;;;;;;;;;;6198622;28;20097;-71
2021/04/30 07:15:59;;;;;;;9.90;7.07;;;;;;;;;;6202766;28;20125;-70
2021/04/30 07:19:00;;;;;;;8.10;7.25;;;;;;;;;;6204868;28;20101;-70
2021/04/30 07:22:01;;;;;;;9.18;8.02;;;;;;;;;;6217373;28;20099;-72
2021/04/30 07:25:02;;;;;;;10.63;8.02;;;;;;;;;;6197858;28;20057;-70
2021/04/30 07:28:05;;;;;;;11.30;8.82;;;;;;;;;;6195130;28;20381;-71
2021/04/30 07:31:06;;;;;;;11.02;8.88;;;;;;;;;;6203996;28;20089;-71
2021/04/30 07:34:07;;;;;;;16.10;9.75;;;;;;;;;;6203395;28;20046;-72
2021/04/30 07:37:08;;;;;;;11.52;8.38;;;;;;;;;;6199035;28;20073;-72
2021/04/30 07:40:10;;;;;;;9.27;7.95;;;;;;;;;;6197795;28;20160;-71
2021/04/30 07:43:14;;;;;;;9.85;7.90;;;;;;;;;;6220504;28;20950;-70
2021/04/30 07:46:15;;;;;;;10.13;8.38;;;;;;;;;;6222817;28;20050;-70
2021/04/30 07:49:16;;;;;;;10.70;8.43;;;;;;;;;;6230024;28;20544;-71
2021/04/30 07:52:17;;;;;;;12.93;9.80;;;;;;;;;;6235665;28;20053;-70
2021/04/30 07:55:19;;;;;;;14.20;10.23;;;;;;;;;;6223401;28;20471;-71
2021/04/30 07:58:25;;;;;;;13.05;9.23;;;;;;;;;;6224292;28;20081;-75
2021/04/30 08:01:26;;;;;;;13.80;9.75;;;;;;;;;;6225334;28;20128;-76
2021/04/30 08:04:27;;;;;;;10.82;8.70;;;;;;;;;;6223876;28;20488;-77
2021/04/30 08:07:28;;;;;;;13.05;9.20;;;;;;;;;;6232631;28;20129;-76
2021/04/30 08:10:29;;;;;;;11.65;9.40;;;;;;;;;;6230063;28;20133;-75
2021/04/30 08:13:31;;;;;;;13.55;10.07;;;;;;;;;;6215089;28;20133;-76
2021/04/30 08:16:32;;;;;;;13.35;10.35;;;;;;;;;;6204188;28;20425;-75
2021/04/30 08:19:33;;;;;;;13.07;9.52;;;;;;;;;;6205783;28;20588;-76
2021/04/30 08:22:35;;;;;;;15.77;9.80;;;;;;;;;;6204279;28;20216;-76
2021/04/30 08:25:36;;;;;;;15.30;10.55;;;;;;;;;;6208766;28;20104;-76
2021/04/30 08:28:38;;;;;;;18.27;10.32;;;;;;;;;;6210901;28;20120;-76
2021/04/30 08:31:39;;;;;;;12.30;9.60;;;;;;;;;;6207653;28;20054;-76
2021/04/30 08:34:40;;;;;;;13.65;10.43;;;;;;;;;;6204537;28;20151;-76
2021/04/30 08:37:41;;;;;;;15.70;10.45;;;;;;;;;;6201514;28;20083;-77
2021/04/30 08:40:43;;;;;;;14.90;11.57;;;;;;;;;;6215315;28;20105;-74
2021/04/30 08:43:47;;;;;;;16.63;11.90;;;;;;;;;;6230443;28;20047;-74
2021/04/30 08:46:47;;;;;;;;;;;;;;;;;;6238134;28;20675;-72
2021/04/30 08:49:52;;;;;;;14.35;11.63;;;;;;;;;;6238800;28;19925;-71
2021/04/30 08:52:54;;;;;;;13.27;10.80;;;;;;;;;;6233821;28;20176;-72
2021/04/30 08:55:57;;;;;;;18.17;11.00;;;;;;;;;;6229173;28;20095;-71
2021/04/30 08:58:59;;;;;;;;;;;;;;;;;;6241463;28;20063;-72
2021/04/30 09:02:01;;;;;;;16.48;10.98;;;;;;;;;;6237069;28;19928;-71
2021/04/30 09:05:02;;;;;;;13.00;10.35;;;;;;;;;;6237918;28;20087;-71
2021/04/30 09:08:03;;;;;;;15.10;11.05;;;;;;;;;;6239476;28;20200;-71
2021/04/30 09:11:04;;;;;;;13.95;10.85;;;;;;;;;;6239447;28;20512;-71
2021/04/30 09:14:24;;;;;;;17.80;10.43;;;;;;;;;;6239687;28;20437;-73
2021/04/30 09:17:27;;;;;;;13.02;10.15;;;;;;;;;;6231674;28;20041;-71
2021/04/30 09:20:37;;;;;;;12.85;9.25;;;;;;;;;;6204043;28;20081;-72
2021/04/30 09:23:40;;;;;;;12.93;10.00;;;;;;;;;;6204586;28;20053;-74
2021/04/30 09:26:41;;;;;;;12.68;9.88;;;;;;;;;;6202787;28;20064;-72
2021/04/30 09:29:43;;;;;;;12.48;9.52;;;;;;;;;;6205216;28;20049;-74
2021/04/30 09:33:10;;;;;;;13.45;9.15;;;;;;;;;;6217309;28;20521;-73
2021/04/30 09:36:11;;;;;;;12.43;9.18;;;;;;;;;;6226445;28;20057;-72
2021/04/30 09:39:12;;;;;;;10.55;8.18;;;;;;;;;;6226164;28;20158;-72
2021/04/30 09:42:16;;;;;;;11.68;8.80;;;;;;;;;;6237389;28;20109;-72
2021/04/30 09:45:18;;;;;;;10.93;9.15;;;;;;;;;;6238970;28;20080;-73
2021/04/30 09:48:19;;;;;;;9.25;7.03;;;;;;;;;;6238054;28;20045;-72
2021/04/30 09:51:42;;;;;;;9.05;6.18;;;;;;;;;;6231033;28;20056;-71
2021/04/30 09:54:43;;;;;;;8.10;5.53;;;;;;;;;;6224522;28;20095;-73
2021/04/30 09:57:44;;;;;;;6.60;4.30;;;;;;;;;;6237794;28;20056;-70
2021/04/30 10:00:48;;;;;;;5.10;4.45;;;;;;;;;;6227390;28;20049;-70
2021/04/30 10:03:49;;;;;;;7.95;4.60;;;;;;;;;;6224936;28;20494;-71
2021/04/30 10:06:54;;;;;;;5.13;4.05;;;;;;;;;;6227340;28;20055;-71
2021/04/30 10:10:08;;;;;;;4.90;3.25;;;;;;;;;;6222380;28;20053;-72
2021/04/30 10:13:09;;;;;;;3.53;3.15;;;;;;;;;;6225710;28;20050;-71
2021/04/30 10:16:11;;;;;;;4.80;4.00;;;;;;;;;;6230530;28;21681;-71
2021/04/30 10:19:12;;;;;;;4.95;4.28;;;;;;;;;;6217889;28;20054;-73
2021/04/30 10:22:15;;;;;;;6.13;4.05;;;;;;;;;;6214083;28;20053;-71
2021/04/30 10:25:18;;;;;;;5.63;4.00;;;;;;;;;;6230886;28;20155;-73
2021/04/30 10:28:25;;;;;;;5.75;4.38;;;;;;;;;;6233320;28;20065;-70
2021/04/30 10:31:29;;;;;;;4.95;3.97;;;;;;;;;;6226774;28;20544;-71
2021/04/30 10:34:33;;;;;;;5.18;4.00;;;;;;;;;;6229110;28;20046;-74
2021/04/30 10:37:34;;;;;;;3.83;3.40;;;;;;;;;;6228688;28;20100;-71
2021/04/30 10:40:35;;;;;;;4.18;3.53;;;;;;;;;;6206957;28;20058;-71
2021/04/30 10:43:37;;;;;;;4.70;3.13;;;;;;;;;;6197722;28;20145;-71
2021/04/30 10:46:39;;;;;;;4.32;3.75;;;;;;;;;;6209164;28;20064;-71
2021/04/30 10:49:42;;;;;;;4.28;3.65;;;;;;;;;;6222467;28;20703;-71
2021/04/30 10:52:44;;;;;;;5.07;3.80;;;;;;;;;;6218570;28;20046;-71
2021/04/30 10:55:46;;;;;;;4.30;3.90;;;;;;;;;;6225151;28;20492;-71
2021/04/30 10:58:47;;;;;;;5.60;3.42;;;;;;;;;;6225454;28;20060;-70
2021/04/30 11:01:51;;;;;;;4.35;3.60;;;;;;;;;;6231812;28;20060;-70
2021/04/30 11:05:13;;;;;;;6.68;4.53;;;;;;;;;;6230564;28;20053;-74
2021/04/30 11:08:14;;;;;;;4.88;3.88;;;;;;;;;;6233847;28;20073;-71
2021/04/30 11:11:16;;;;;;;5.68;3.95;;;;;;;;;;6232287;28;20132;-72
2021/04/30 11:14:28;;;;;;;4.82;3.65;;;;;;;;;;6231316;28;20084;-71
2021/04/30 11:17:53;;;;;;;5.35;4.35;;;;;;;;;;6232775;28;20168;-73
2021/04/30 11:20:59;;;;;;;5.40;3.90;;;;;;;;;;6226804;28;20074;-72
2021/04/30 11:24:00;;;;;;;4.80;4.00;;;;;;;;;;6233123;28;20192;-72
2021/04/30 11:27:32;;;;;;;5.40;4.90;;;;;;;;;;6225340;28;20088;-72
2021/04/30 11:30:37;;;;;;;5.93;4.25;;;;;;;;;;6223029;28;20045;-73
2021/04/30 11:33:41;;;;;;;4.85;4.03;;;;;;;;;;6239025;28;20045;-71
2021/04/30 11:36:43;;;;;;;5.30;3.90;;;;;;;;;;6205538;28;20433;-72
2021/04/30 11:39:44;;;;;;;4.88;4.10;;;;;;;;;;6219411;28;20059;-74
2021/04/30 11:42:45;;;;;;;5.43;4.43;;;;;;;;;;6204063;28;20056;-72
2021/04/30 11:45:52;;;;;;;5.03;4.05;;;;;;;;;;6234402;28;20068;-68
2021/04/30 11:48:54;;;;;;;5.45;3.85;;;;;;;;;;6220686;28;20081;-70
2021/04/30 11:51:55;;;;;;;5.90;3.40;;;;;;;;;;6205533;28;20099;-70
2021/04/30 11:55:01;;;;;;;5.97;3.22;;;;;;;;;;6216304;28;20091;-73
2021/04/30 11:58:02;;;;;;;7.20;4.07;;;;;;;;;;6231636;28;20362;-73
2021/04/30 12:01:03;;;;;;;6.32;4.30;;;;;;;;;;6221066;28;20223;-70
2021/04/30 12:04:06;;;;;;;4.65;4.15;;;;;;;;;;6205143;28;20112;-71
2021/04/30 12:07:08;;;;;;;3.90;3.17;;;;;;;;;;6205451;28;20069;-70
2021/04/30 12:10:20;;;;;;;3.97;3.53;;;;;;;;;;6212373;28;20422;-71
2021/04/30 12:13:22;;;;;;;3.80;2.95;;;;;;;;;;6208837;28;20054;-72
2021/04/30 12:16:23;;;;;;;3.03;2.70;;;;;;;;;;6230601;28;20510;-72
2021/04/30 12:19:25;;;;;;;4.35;3.17;;;;;;;;;;6231919;28;20076;-71
2021/04/30 12:22:27;;;;;;;5.70;3.67;;;;;;;;;;6229471;28;20589;-70
2021/04/30 12:25:34;;;;;;;4.78;3.90;;;;;;;;;;6231709;28;20053;-72
2021/04/30 12:28:36;;;;;;;3.60;3.30;;;;;;;;;;6212189;28;20045;-71
2021/04/30 12:31:39;;;;;;;4.28;3.47;;;;;;;;;;6213881;28;20144;-71
2021/04/30 12:34:41;;;;;;;5.93;3.40;;;;;;;;;;6212919;28;20390;-71
2021/04/30 12:37:42;;;;;;;4.97;3.90;;;;;;;;;;6209682;28;20061;-71
2021/04/30 12:40:43;;;;;;;7.22;3.67;;;;;;;;;;6202521;28;20631;-71
2021/04/30 12:43:44;;;;;;;5.15;3.25;;;;;;;;;;6217153;28;20092;-71
2021/04/30 12:46:45;;;;;;;4.25;3.58;;;;;;;;;;6209184;28;20056;-70
2021/04/30 12:49:47;;;;;;;6.40;3.95;;;;;;;;;;6231919;28;20140;-70
2021/04/30 12:52:50;;;;;;;6.65;4.45;;;;;;;;;;6225233;28;20053;-71
2021/04/30 12:55:51;;;;;;;4.30;3.72;;;;;;;;;;6222168;28;20045;-69
2021/04/30 12:59:10;;;;;;;3.60;3.30;;;;;;;;;;6218086;28;20587;-70
2021/04/30 13:02:12;;;;;;;6.60;3.92;;;;;;;;;;6197278;28;20051;-70
2021/04/30 13:05:15;;;;;;;5.13;4.63;;;;;;;;;;6212370;28;20048;-70
2021/04/30 13:08:16;;;;;;;5.53;5.03;;;;;;;;;;6207824;28;20061;-69
2021/04/30 13:11:19;;;;;;;6.25;4.78;;;;;;;;;;6214858;28;20071;-70
2021/04/30 13:14:20;;;;;;;13.40;6.13;;;;;;;;;;6221888;28;20168;-70
2021/04/30 13:17:23;;;;;;;10.02;5.35;;;;;;;;;;6226444;28;20060;-71
2021/04/30 13:20:31;;;;;;;10.82;6.25;;;;;;;;;;6232541;28;20061;-70
2021/04/30 13:23:34;;;;;;;6.75;4.65;;;;;;;;;;6228957;28;21326;-70
2021/04/30 13:26:35;;;;;;;5.35;4.72;;;;;;;;;;6226739;28;20076;-70
2021/04/30 13:29:37;;;;;;;7.35;4.50;;;;;;;;;;6227743;28;20037;-70
2021/04/30 13:32:39;;;;;;;5.80;4.45;;;;;;;;;;6226508;28;20493;-73
2021/04/30 13:35:41;;;;;;;6.95;4.53;;;;;;;;;;6226768;28;20038;-70
2021/04/30 13:38:42;;;;;;;5.28;4.30;;;;;;;;;;6224466;28;20421;-71
2021/04/30 13:41:43;;;;;;;7.18;4.80;;;;;;;;;;6224846;28;20060;-71
2021/04/30 13:44:48;;;;;;;8.15;5.15;;;;;;;;;;6227249;28;20057;-70
2021/04/30 13:47:51;;;;;;;5.95;4.90;;;;;;;;;;6228811;28;20651;-72
2021/04/30 13:50:53;;;;;;;6.95;4.65;;;;;;;;;;6228780;28;20122;-70
2021/04/30 13:53:54;;;;;;;5.47;4.40;;;;;;;;;;6232297;28;20061;-71
2021/04/30 13:56:55;;;;;;;5.68;4.15;;;;;;;;;;6225131;28;20179;-70
2021/04/30 13:59:56;;;;;;;6.35;4.75;;;;;;;;;;6221585;28;20492;-72
2021/04/30 14:02:57;;;;;;;8.88;4.72;;;;;;;;;;6207868;28;20103;-70
2021/04/30 14:05:59;;;;;;;7.93;4.63;;;;;;;;;;6206266;28;20049;-70
2021/04/30 14:09:00;;;;;;;6.32;4.90;;;;;;;;;;6216408;28;20077;-71
2021/04/30 14:12:02;;;;;;;6.13;4.90;;;;;;;;;;6209598;28;20056;-71
2021/04/30 14:15:04;;;;;;;5.40;4.15;;;;;;;;;;6209628;28;20061;-70
2021/04/30 14:18:05;;;;;;;6.28;4.53;;;;;;;;;;6220926;28;20049;-72
2021/04/30 14:21:07;;;;;;;5.57;4.03;;;;;;;;;;6223529;28;20171;-72
2021/04/30 14:24:10;;;;;;;4.65;3.90;;;;;;;;;;6222727;28;20184;-71
2021/04/30 14:27:11;;;;;;;5.72;4.55;;;;;;;;;;6229025;28;20042;-71
2021/04/30 14:30:14;;;;;;;6.30;4.22;;;;;;;;;;6230191;28;20280;-71
2021/04/30 14:33:15;;;;;;;6.93;3.58;;;;;;;;;;6227498;28;20131;-71
2021/04/30 14:36:18;;;;;;;5.75;4.03;;;;;;;;;;6229571;28;20073;-70
2021/04/30 14:39:19;;;;;;;4.57;3.97;;;;;;;;;;6232849;28;20153;-70
2021/04/30 14:42:20;;;;;;;6.13;4.22;;;;;;;;;;6233377;28;20235;-71
2021/04/30 14:45:21;;;;;;;7.38;4.00;;;;;;;;;;6230511;28;20057;-70
2021/04/30 14:48:22;;;;;;;5.90;3.97;;;;;;;;;;6226274;28;20145;-70
2021/04/30 14:51:24;;;;;;;6.03;3.72;;;;;;;;;;6229744;28;20053;-70
2021/04/30 14:54:26;;;;;;;8.35;3.60;;;;;;;;;;6223354;28;20081;-72
2021/04/30 14:57:27;;;;;;;6.82;3.20;;;;;;;;;;6231839;28;20130;-68
2021/04/30 15:00:28;;;;;;;5.13;3.40;;;;;;;;;;6229372;28;20491;-71
2021/04/30 15:03:29;;;;;;;5.28;3.42;;;;;;;;;;6227726;28;20079;-71
2021/04/30 15:06:31;;;;;;;4.63;3.22;;;;;;;;;;6226200;28;20110;-72
2021/04/30 15:09:33;;;;;;;4.88;3.20;;;;;;;;;;6224219;28;20053;-71
2021/04/30 15:12:34;;;;;;;5.60;3.28;;;;;;;;;;6217537;28;20084;-71
2021/04/30 15:15:35;;;;;;;5.85;3.08;;;;;;;;;;6205131;28;20058;-71
2021/04/30 15:18:36;;;;;;;4.28;3.45;;;;;;;;;;6208838;28;20147;-71
2021/04/30 15:21:38;;;;;;;6.03;3.35;;;;;;;;;;6236775;28;20050;-71
2021/04/30 15:24:39;;;;;;;3.53;2.90;;;;;;;;;;6225033;28;20053;-71
2021/04/30 15:27:40;;;;;;;4.38;2.60;;;;;;;;;;6232197;28;20083;-72
2021/04/30 15:30:41;;;;;;;3.97;2.65;;;;;;;;;;6232750;28;20152;-70
2021/04/30 15:33:42;;;;;;;4.45;2.22;;;;;;;;;;6218671;28;20073;-70
2021/04/30 15:36:44;;;;;;;4.38;2.47;;;;;;;;;;6216994;28;20046;-70
2021/04/30 15:39:45;;;;;;;3.20;2.40;;;;;;;;;;6218519;28;20064;-71
2021/04/30 15:42:46;;;;;;;4.30;2.58;;;;;;;;;;6210186;28;20056;-71
2021/04/30 15:45:50;;;;;;;3.60;2.50;;;;;;;;;;6227525;28;20092;-71
2021/04/30 15:48:51;;;;;;;4.47;2.42;;;;;;;;;;6222297;28;20084;-71
2021/04/30 15:51:53;;;;;;;5.45;3.05;;;;;;;;;;6212120;28;20084;-71
2021/04/30 15:54:55;;;;;;;4.75;2.67;;;;;;;;;;6203011;28;20624;-70
2021/04/30 15:57:56;;;;;;;4.38;2.78;;;;;;;;;;6208558;28;20133;-71
2021/04/30 16:01:02;;;;;;;5.40;3.10;;;;;;;;;;6210237;28;20042;-69
2021/04/30 16:04:03;;;;;;;4.28;2.75;;;;;;;;;;6213285;28;20062;-70
2021/04/30 16:07:05;;;;;;;5.07;2.85;;;;;;;;;;6234709;28;20099;-70
2021/04/30 16:10:07;;;;;;;4.22;3.13;;;;;;;;;;6232784;28;20107;-71
2021/04/30 16:13:08;;;;;;;5.90;3.72;;;;;;;;;;6212536;28;20496;-70
2021/04/30 16:16:09;;;;;;;4.40;3.30;;;;;;;;;;6211367;28;20450;-70
2021/04/30 16:19:10;;;;;;;5.25;2.90;;;;;;;;;;6202387;28;20052;-71
2021/04/30 16:22:12;;;;;;;4.63;3.17;;;;;;;;;;6206557;28;20137;-71
2021/04/30 16:25:14;;;;;;;3.75;3.00;;;;;;;;;;6206299;28;20054;-71
2021/04/30 16:28:15;;;;;;;5.00;3.30;;;;;;;;;;6199509;28;20041;-70
2021/04/30 16:31:17;;;;;;;7.60;3.33;;;;;;;;;;6199947;28;20491;-71
2021/04/30 16:34:19;;;;;;;7.57;3.83;;;;;;;;;;6203583;28;20045;-73
2021/04/30 16:37:22;;;;;;;8.90;5.60;;;;;;;;;;6209569;28;20050;-72
2021/04/30 16:40:23;;;;;;;4.47;3.20;;;;;;;;;;6196300;28;20061;-71
2021/04/30 16:43:24;;;;;;;5.75;3.38;;;;;;;;;;6198802;28;20067;-71
2021/04/30 16:46:25;;;;;;;5.18;3.40;;;;;;;;;;6207043;28;20169;-71
2021/04/30 16:49:27;;;;;;;5.90;3.90;;;;;;;;;;6206772;28;20128;-71
2021/04/30 16:52:29;;;;;;;4.70;3.05;;;;;;;;;;6212130;28;20589;-70
2021/04/30 16:55:30;;;;;;;6.25;3.08;;;;;;;;;;6196896;28;20064;-71
2021/04/30 16:58:31;;;;;;;4.45;2.95;;;;;;;;;;6197306;28;20061;-71
2021/04/30 17:01:32;;;;;;;5.25;4.07;;;;;;;;;;6207292;28;20440;-71
2021/04/30 17:04:33;;;;;;;4.55;3.40;;;;;;;;;;6213226;28;20085;-72
2021/04/30 17:07:35;;;;;;;5.70;3.50;;;;;;;;;;6218668;28;20060;-70
2021/04/30 17:10:36;;;;;;;5.18;3.42;;;;;;;;;;6217436;28;20141;-70
2021/04/30 17:13:39;;;;;;;7.15;4.55;;;;;;;;;;6210624;28;20140;-71
2021/04/30 17:16:40;;;;;;;8.43;4.55;;;;;;;;;;6209077;28;20042;-71
2021/04/30 17:19:41;;;;;;;4.25;3.50;;;;;;;;;;6204786;28;20046;-72
2021/04/30 17:22:43;;;;;;;5.00;4.15;;;;;;;;;;6221110;28;20073;-72
2021/04/30 17:25:45;;;;;;;6.57;4.35;;;;;;;;;;6203842;28;20054;-71
2021/04/30 17:28:46;;;;;;;6.10;3.90;;;;;;;;;;6208707;28;20083;-70
2021/04/30 17:31:47;;;;;;;6.03;3.40;;;;;;;;;;6202486;28;20045;-70
2021/04/30 17:34:48;;;;;;;9.10;4.80;;;;;;;;;;6201590;28;20134;-70
2021/04/30 17:37:50;;;;;;;7.45;4.70;;;;;;;;;;6224602;28;20069;-70
2021/04/30 17:40:51;;;;;;;6.53;4.70;;;;;;;;;;6205292;28;20042;-70
2021/04/30 17:43:52;;;;;;;8.20;4.38;;;;;;;;;;6204525;28;20136;-71
2021/04/30 17:46:53;;;;;;;6.47;4.70;;;;;;;;;;6200437;28;20172;-70
2021/04/30 17:49:54;;;;;;;8.68;5.30;;;;;;;;;;6205175;28;20050;-70
2021/04/30 17:52:56;;;;;;;7.32;4.32;;;;;;;;;;6206972;28;20045;-70
2021/04/30 17:55:59;;;;;;;6.82;4.68;;;;;;;;;;6204190;28;20042;-70
2021/04/30 17:59:00;;;;;;;10.07;6.07;;;;;;;;;;6208497;28;20429;-70
2021/04/30 18:02:01;;;;;;;10.63;6.53;;;;;;;;;;6202308;28;20486;-70
2021/04/30 18:05:02;;;;;;;9.57;6.95;;;;;;;;;;6203072;28;20655;-70
2021/04/30 18:08:04;;;;;;;8.43;5.75;;;;;;;;;;6207527;28;20083;-70